Time;durP1;ratioP1;P1;durP2;ratioP2;P2;SDS_P1;SDS_P2;PMS_P1;PMS_P2;Temp;Humidity;BMP_temperature;BMP_pressure;BME280_temperature;BME280_humidity;BME280_pressure;Samples;Min_cycle;Max_cycle;Signal;HPM_P1;HPM_P2
2023/11/12 00:01:00;0.00;0.00;0.62;0.00;0.00;0.62;2.50;1.90;;;21.50;29.00;;;;;;2269077;61;20379;-68
2023/11/12 00:03:45;0.00;0.00;0.62;0.00;0.00;0.62;2.77;2.17;;;21.50;29.00;;;;;;2268748;61;20883;-68
2023/11/12 00:06:29;0.00;0.00;0.62;0.00;0.00;0.62;3.33;2.50;;;21.40;28.90;;;;;;2270534;60;20991;-68
2023/11/12 00:09:14;0.00;0.00;0.62;0.00;0.00;0.62;3.10;2.00;;;21.50;29.00;;;;;;2272825;61;20369;-69
2023/11/12 00:11:58;0.00;0.00;0.62;0.00;0.00;0.62;3.33;2.70;;;21.50;28.90;;;;;;2272865;61;20404;-69
2023/11/12 00:14:45;0.00;0.00;0.62;0.00;0.00;0.62;3.00;2.30;;;21.40;28.90;;;;;;2273235;61;20512;-68
2023/11/12 00:17:30;0.00;0.00;0.62;0.00;0.00;0.62;3.77;2.27;;;21.40;28.90;;;;;;2272780;61;20366;-68
2023/11/12 00:20:17;0.00;0.00;0.62;0.00;0.00;0.62;3.53;2.57;;;21.50;28.90;;;;;;2272977;61;20898;-68
2023/11/12 00:23:02;0.00;0.00;0.62;0.00;0.00;0.62;2.80;2.07;;;21.50;29.00;;;;;;2269762;61;21028;-69
2023/11/12 00:25:47;0.00;0.00;0.62;0.00;0.00;0.62;3.97;3.00;;;21.40;28.90;;;;;;2272630;61;20440;-68
2023/11/12 00:28:32;0.00;0.00;0.62;0.00;0.00;0.62;3.00;2.30;;;21.50;29.00;;;;;;2272810;61;20382;-68
2023/11/12 00:31:21;0.00;0.00;0.62;0.00;0.00;0.62;2.60;2.17;;;21.50;29.50;;;;;;2273166;61;20374;-69
2023/11/12 00:34:06;0.00;0.00;0.62;0.00;0.00;0.62;2.93;2.33;;;21.40;28.90;;;;;;2272861;61;20398;-69
2023/11/12 00:36:51;0.00;0.00;0.62;0.00;0.00;0.62;3.43;2.17;;;21.40;28.90;;;;;;2273294;61;20365;-67
2023/11/12 00:39:36;0.00;0.00;0.62;0.00;0.00;0.62;3.03;2.37;;;21.40;28.90;;;;;;2269035;61;20346;-69
2023/11/12 00:42:20;0.00;0.00;0.62;0.00;0.00;0.62;4.00;2.57;;;21.40;28.90;;;;;;2269665;61;20929;-68
2023/11/12 00:45:08;0.00;0.00;0.62;0.00;0.00;0.62;3.50;2.10;;;21.40;28.90;;;;;;2273219;61;20386;-70
2023/11/12 00:47:55;0.00;0.00;0.62;0.00;0.00;0.62;2.27;1.80;;;21.40;28.90;;;;;;2272103;61;20354;-70
2023/11/12 00:50:39;0.00;0.00;0.62;0.00;0.00;0.62;3.23;2.07;;;21.40;28.90;;;;;;2269715;61;20403;-70
2023/11/12 00:53:24;0.00;0.00;0.62;0.00;0.00;0.62;3.00;2.17;;;21.40;28.90;;;;;;2272497;61;20373;-70
2023/11/12 00:56:08;0.00;0.00;0.62;0.00;0.00;0.62;2.90;2.30;;;21.40;28.90;;;;;;2272727;61;20435;-69
2023/11/12 00:58:53;0.00;0.00;0.62;0.00;0.00;0.62;3.17;2.00;;;21.40;28.90;;;;;;2272452;61;20404;-69
2023/11/12 01:01:37;0.00;0.00;0.62;0.00;0.00;0.62;2.87;1.97;;;21.40;28.90;;;;;;2272524;61;20377;-69
2023/11/12 01:04:23;0.00;0.00;0.62;0.00;0.00;0.62;3.10;2.03;;;21.40;28.90;;;;;;2272378;61;20917;-69
2023/11/12 01:07:08;0.00;0.00;0.62;0.00;0.00;0.62;2.73;2.03;;;21.40;28.90;;;;;;2268470;61;20693;-69
2023/11/12 01:09:52;0.00;0.00;0.62;0.00;0.00;0.62;3.67;2.60;;;21.40;28.90;;;;;;2268305;61;20836;-70
2023/11/12 01:12:37;0.00;0.00;0.62;0.00;0.00;0.62;2.90;2.07;;;21.40;28.90;;;;;;2268841;61;20513;-68
2023/11/12 01:15:21;0.00;0.00;0.62;0.00;0.00;0.62;2.97;1.83;;;21.40;28.90;;;;;;2268429;61;20850;-68
2023/11/12 01:18:08;0.00;0.00;0.62;0.00;0.00;0.62;3.63;2.20;;;21.40;28.90;;;;;;2268054;61;20900;-69
2023/11/12 01:20:53;0.00;0.00;0.62;0.00;0.00;0.62;2.30;1.93;;;21.40;28.90;;;;;;2268420;61;20885;-68
2023/11/12 01:23:38;0.00;0.00;0.62;0.00;0.00;0.62;2.70;2.10;;;21.40;28.90;;;;;;2268790;61;20363;-70
2023/11/12 01:26:24;0.00;0.00;0.62;0.00;0.00;0.62;2.93;2.47;;;21.40;28.90;;;;;;2268792;61;20363;-69
2023/11/12 01:29:08;0.00;0.00;0.62;0.00;0.00;0.62;3.73;2.50;;;21.40;28.90;;;;;;2268332;61;20771;-69
2023/11/12 01:31:53;0.00;0.00;0.62;0.00;0.00;0.62;2.70;2.03;;;21.40;28.90;;;;;;2268462;61;20406;-68
2023/11/12 01:34:37;0.00;0.00;0.62;0.00;0.00;0.62;2.50;2.00;;;21.40;28.90;;;;;;2268690;61;20383;-69
2023/11/12 01:37:23;0.00;0.00;0.62;0.00;0.00;0.62;2.63;1.90;;;21.40;28.90;;;;;;2268215;61;20405;-68
2023/11/12 01:40:11;0.00;0.00;0.62;0.00;0.00;0.62;2.93;2.23;;;21.40;28.90;;;;;;2267690;61;20891;-68
2023/11/12 01:42:56;0.00;0.00;0.62;0.00;0.00;0.62;2.60;1.93;;;21.40;28.90;;;;;;2268735;61;20427;-69
2023/11/12 01:45:43;0.00;0.00;0.62;0.00;0.00;0.62;2.97;1.80;;;21.40;28.90;;;;;;2268176;61;20386;-69
2023/11/12 01:48:30;0.00;0.00;0.62;0.00;0.00;0.62;2.50;1.90;;;21.40;28.90;;;;;;2267685;61;20413;-69
2023/11/12 01:51:16;0.00;0.00;0.62;0.00;0.00;0.62;3.03;2.00;;;21.40;28.90;;;;;;2268889;61;20429;-69
2023/11/12 01:54:03;0.00;0.00;0.62;0.00;0.00;0.62;2.77;2.00;;;21.40;28.90;;;;;;2268236;61;20405;-68
2023/11/12 01:56:48;0.00;0.00;0.62;0.00;0.00;0.62;2.47;1.80;;;21.40;28.90;;;;;;2265548;61;20371;-69
2023/11/12 01:59:35;0.00;0.00;0.62;0.00;0.00;0.62;2.17;1.60;;;21.40;28.90;;;;;;2264987;61;20363;-69
2023/11/12 02:02:21;0.00;0.00;0.62;0.00;0.00;0.62;2.97;1.83;;;21.40;28.90;;;;;;2264802;61;20383;-69
2023/11/12 02:05:08;0.00;0.00;0.62;0.00;0.00;0.62;2.60;1.83;;;21.40;28.90;;;;;;2265168;61;20932;-69
2023/11/12 02:07:53;0.00;0.00;0.62;0.00;0.00;0.62;2.70;2.07;;;21.40;28.90;;;;;;2268746;60;20374;-68
2023/11/12 02:10:40;0.00;0.00;0.62;0.00;0.00;0.62;2.70;2.00;;;21.40;28.90;;;;;;2269385;61;20405;-69
2023/11/12 02:13:25;0.00;0.00;0.62;0.00;0.00;0.62;2.70;2.10;;;21.40;28.90;;;;;;2269385;61;20908;-69
2023/11/12 02:16:10;0.00;0.00;0.62;0.00;0.00;0.62;2.60;1.80;;;21.40;28.90;;;;;;2265282;61;20417;-69
2023/11/12 02:18:55;0.00;0.00;0.62;0.00;0.00;0.62;3.10;2.00;;;21.40;28.90;;;;;;2268237;61;20363;-69
2023/11/12 02:21:40;0.00;0.00;0.62;0.00;0.00;0.62;2.43;1.83;;;21.40;28.90;;;;;;2265332;61;20395;-69
2023/11/12 02:24:26;0.00;0.00;0.62;0.00;0.00;0.62;2.50;1.50;;;21.40;28.90;;;;;;2264973;61;20379;-69
2023/11/12 02:27:10;0.00;0.00;0.62;0.00;0.00;0.62;2.50;1.90;;;21.40;28.90;;;;;;2265618;61;20362;-68
2023/11/12 02:29:55;0.00;0.00;0.62;0.00;0.00;0.62;3.80;1.80;;;21.40;28.90;;;;;;2268649;61;20370;-69
2023/11/12 02:32:40;0.00;0.00;0.62;0.00;0.00;0.62;2.33;1.73;;;21.40;28.90;;;;;;2265297;61;20360;-68
2023/11/12 02:35:25;0.00;0.00;0.62;0.00;0.00;0.62;2.77;1.83;;;21.40;28.90;;;;;;2265611;61;20383;-68
2023/11/12 02:38:12;0.00;0.00;0.62;0.00;0.00;0.62;2.57;1.50;;;21.40;28.90;;;;;;2264673;61;20402;-69
2023/11/12 02:41:00;0.00;0.00;0.62;0.00;0.00;0.62;2.40;1.93;;;21.40;28.90;;;;;;2268696;61;20421;-69
2023/11/12 02:43:46;0.00;0.00;0.62;0.00;0.00;0.62;2.63;2.00;;;21.40;28.90;;;;;;2265275;61;20371;-68
2023/11/12 02:46:30;0.00;0.00;0.62;0.00;0.00;0.62;2.13;1.63;;;21.40;28.90;;;;;;2267712;61;20413;-68
2023/11/12 02:49:35;0.00;0.00;0.62;0.00;0.00;0.62;1.93;1.40;;;21.40;28.90;;;;;;2268097;61;20406;-69
2023/11/12 02:52:20;0.00;0.00;0.62;0.00;0.00;0.62;2.40;1.90;;;21.40;28.90;;;;;;2267904;61;20350;-69
2023/11/12 02:55:05;0.00;0.00;0.62;0.00;0.00;0.62;3.03;2.03;;;21.40;28.90;;;;;;2268257;61;20899;-68
2023/11/12 02:57:51;0.00;0.00;0.62;0.00;0.00;0.62;2.63;1.90;;;21.30;28.90;;;;;;2265083;61;20878;-69
2023/11/12 03:00:37;0.00;0.00;0.62;0.00;0.00;0.62;2.57;1.90;;;21.40;28.90;;;;;;2267590;61;20363;-68
2023/11/12 03:03:22;0.00;0.00;0.62;0.00;0.00;0.62;2.07;1.57;;;21.40;28.90;;;;;;2267996;61;20954;-69
2023/11/12 03:06:07;0.00;0.00;0.62;0.00;0.00;0.62;2.03;1.80;;;21.40;28.90;;;;;;2265305;61;21213;-70
2023/11/12 03:08:51;0.00;0.00;0.62;0.00;0.00;0.62;2.40;1.73;;;21.40;28.90;;;;;;2267769;61;20957;-69
2023/11/12 03:11:37;0.00;0.00;0.62;0.00;0.00;0.62;3.73;2.00;;;21.30;28.80;;;;;;2268798;61;20542;-69
2023/11/12 03:14:24;0.00;0.00;0.62;0.00;0.00;0.62;2.70;1.60;;;21.30;28.90;;;;;;2268011;61;20390;-69
2023/11/12 03:17:08;0.00;0.00;0.62;0.00;0.00;0.62;2.63;2.03;;;21.40;28.90;;;;;;2268415;61;20387;-69
2023/11/12 03:19:53;0.00;0.00;0.62;0.00;0.00;0.62;2.10;1.80;;;21.40;28.90;;;;;;2267753;61;20397;-69
2023/11/12 03:22:38;0.00;0.00;0.62;0.00;0.00;0.62;2.37;1.77;;;21.40;28.90;;;;;;2268578;61;20830;-69
2023/11/12 03:25:24;0.00;0.00;0.62;0.00;0.00;0.62;2.67;2.30;;;21.30;28.90;;;;;;2268587;61;20926;-69
2023/11/12 03:28:08;0.00;0.00;0.62;0.00;0.00;0.62;3.03;1.80;;;21.30;28.80;;;;;;2268830;61;20906;-70
2023/11/12 03:30:54;0.00;0.00;0.62;0.00;0.00;0.62;2.63;1.93;;;21.40;28.90;;;;;;2268993;61;20943;-69
2023/11/12 03:33:38;0.00;0.00;0.62;0.00;0.00;0.62;2.90;2.10;;;21.30;28.80;;;;;;2268587;61;20355;-70
2023/11/12 03:36:23;0.00;0.00;0.62;0.00;0.00;0.62;2.10;1.50;;;21.30;28.80;;;;;;2269286;61;20359;-69
2023/11/12 03:39:09;0.00;0.00;0.62;0.00;0.00;0.62;2.93;1.50;;;21.30;28.80;;;;;;2268432;61;20359;-69
2023/11/12 03:41:54;0.00;0.00;0.62;0.00;0.00;0.62;1.97;1.43;;;21.40;28.90;;;;;;2269169;61;20436;-69
2023/11/12 03:44:39;0.00;0.00;0.62;0.00;0.00;0.62;2.33;1.60;;;21.30;28.80;;;;;;2268482;61;20941;-69
2023/11/12 03:47:25;0.00;0.00;0.62;0.00;0.00;0.62;2.10;1.90;;;21.30;28.80;;;;;;2269132;61;20887;-69
2023/11/12 03:50:10;0.00;0.00;0.62;0.00;0.00;0.62;2.30;1.73;;;21.30;28.80;;;;;;2268484;61;20914;-69
2023/11/12 03:52:54;0.00;0.00;0.62;0.00;0.00;0.62;1.73;1.40;;;21.30;28.80;;;;;;2268713;61;20366;-67
2023/11/12 03:55:39;0.00;0.00;0.62;0.00;0.00;0.62;2.43;1.77;;;21.30;28.80;;;;;;2268972;61;20915;-68
2023/11/12 03:58:24;0.00;0.00;0.62;0.00;0.00;0.62;1.90;1.30;;;21.30;28.80;;;;;;2268457;61;20898;-68
2023/11/12 04:01:09;0.00;0.00;0.62;0.00;0.00;0.62;2.80;1.53;;;21.30;28.80;;;;;;2268511;61;20442;-69
2023/11/12 04:03:55;0.00;0.00;0.62;0.00;0.00;0.62;2.60;1.37;;;21.30;28.80;;;;;;2268987;61;20428;-68
2023/11/12 04:06:40;0.00;0.00;0.62;0.00;0.00;0.62;2.10;1.40;;;21.30;28.80;;;;;;2270243;61;20374;-70
2023/11/12 04:09:24;0.00;0.00;0.62;0.00;0.00;0.62;2.37;1.73;;;21.30;28.80;;;;;;2269582;61;20867;-68
2023/11/12 04:12:11;0.00;0.00;0.62;0.00;0.00;0.62;2.40;1.60;;;21.30;28.80;;;;;;2269930;61;20443;-67
2023/11/12 04:14:56;0.00;0.00;0.62;0.00;0.00;0.62;2.37;1.67;;;21.30;28.80;;;;;;2272781;60;20385;-68
2023/11/12 04:17:41;0.00;0.00;0.62;0.00;0.00;0.62;2.17;1.37;;;21.30;28.80;;;;;;2273089;61;20362;-68
2023/11/12 04:20:29;0.00;0.00;0.62;0.00;0.00;0.62;2.17;1.40;;;21.30;28.80;;;;;;2270119;61;20597;-69
2023/11/12 04:23:13;0.00;0.00;0.62;0.00;0.00;0.62;2.30;1.60;;;21.30;28.80;;;;;;2272762;61;20421;-68
2023/11/12 04:25:58;0.00;0.00;0.62;0.00;0.00;0.62;3.23;1.50;;;21.30;28.80;;;;;;2272924;61;20483;-68
2023/11/12 04:28:43;0.00;0.00;0.62;0.00;0.00;0.62;1.83;1.47;;;21.30;28.80;;;;;;2272713;61;20378;-69
2023/11/12 04:31:27;0.00;0.00;0.62;0.00;0.00;0.62;1.90;1.30;;;21.30;28.80;;;;;;2272977;60;20369;-69
2023/11/12 04:34:12;0.00;0.00;0.62;0.00;0.00;0.62;2.00;1.53;;;21.30;28.80;;;;;;2273005;61;20909;-67
2023/11/12 04:36:58;0.00;0.00;0.62;0.00;0.00;0.62;2.27;1.47;;;21.30;28.80;;;;;;2272735;61;20378;-67
2023/11/12 04:39:42;0.00;0.00;0.62;0.00;0.00;0.62;1.90;1.33;;;21.30;28.80;;;;;;2272679;61;20817;-68
2023/11/12 04:42:27;0.00;0.00;0.62;0.00;0.00;0.62;1.70;1.20;;;21.30;28.80;;;;;;2273202;61;20777;-68
2023/11/12 04:45:12;0.00;0.00;0.62;0.00;0.00;0.62;2.23;1.43;;;21.30;28.80;;;;;;2272631;61;20777;-68
2023/11/12 04:47:56;0.00;0.00;0.62;0.00;0.00;0.62;2.03;1.43;;;21.30;28.80;;;;;;2272936;61;20366;-69
2023/11/12 04:50:41;0.00;0.00;0.62;0.00;0.00;0.62;1.87;1.30;;;21.30;28.80;;;;;;2273163;61;20362;-68
2023/11/12 04:53:28;0.00;0.00;0.62;0.00;0.00;0.62;1.93;1.30;;;21.30;28.80;;;;;;2273325;61;20478;-67
2023/11/12 04:56:13;0.00;0.00;0.62;0.00;0.00;0.62;1.80;1.33;;;21.30;28.80;;;;;;2273020;61;20386;-69
2023/11/12 04:58:58;0.00;0.00;0.62;0.00;0.00;0.62;1.80;1.47;;;21.30;28.80;;;;;;2272366;61;20370;-68
2023/11/12 05:01:42;0.00;0.00;0.62;0.00;0.00;0.62;2.10;1.40;;;21.30;28.80;;;;;;2273193;61;20373;-69
2023/11/12 05:04:28;0.00;0.00;0.62;0.00;0.00;0.62;1.90;1.43;;;21.30;28.80;;;;;;2273025;61;20917;-68
2023/11/12 05:07:13;0.00;0.00;0.62;0.00;0.00;0.62;1.67;1.20;;;21.30;28.80;;;;;;2269728;61;20374;-70
2023/11/12 05:09:59;0.00;0.00;0.62;0.00;0.00;0.62;1.87;1.50;;;21.30;28.80;;;;;;2268601;61;20539;-68
2023/11/12 05:12:43;0.00;0.00;0.62;0.00;0.00;0.62;2.73;1.33;;;21.30;28.80;;;;;;2268858;61;20360;-68
2023/11/12 05:15:28;0.00;0.00;0.62;0.00;0.00;0.62;1.70;1.00;;;21.30;28.80;;;;;;2268572;61;20394;-68
2023/11/12 05:18:13;0.00;0.00;0.62;0.00;0.00;0.62;1.97;1.50;;;21.30;28.80;;;;;;2268423;61;20401;-69
2023/11/12 05:20:57;0.00;0.00;0.62;0.00;0.00;0.62;2.20;1.30;;;21.30;28.80;;;;;;2268514;61;20883;-68
2023/11/12 05:23:42;0.00;0.00;0.62;0.00;0.00;0.62;2.00;1.50;;;21.30;28.80;;;;;;2268764;61;20414;-68
2023/11/12 05:26:28;0.00;0.00;0.62;0.00;0.00;0.62;2.07;1.30;;;21.20;28.80;;;;;;2269066;61;20393;-68
2023/11/12 05:29:12;0.00;0.00;0.62;0.00;0.00;0.62;1.93;1.50;;;21.20;28.80;;;;;;2267957;61;20363;-68
2023/11/12 05:31:57;0.00;0.00;0.62;0.00;0.00;0.62;2.27;1.57;;;21.30;28.80;;;;;;2268979;61;20367;-68
2023/11/12 05:34:41;0.00;0.00;0.62;0.00;0.00;0.62;1.80;1.47;;;21.20;28.80;;;;;;2268351;61;20383;-70
2023/11/12 05:37:26;0.00;0.00;0.62;0.00;0.00;0.62;1.60;1.27;;;21.20;28.80;;;;;;2268005;61;20405;-69
2023/11/12 05:40:12;0.00;0.00;0.62;0.00;0.00;0.62;2.00;1.40;;;21.30;28.80;;;;;;2268495;61;20764;-69
2023/11/12 05:42:58;0.00;0.00;0.62;0.00;0.00;0.62;1.97;1.40;;;21.30;28.80;;;;;;2268128;61;20394;-69
2023/11/12 05:45:43;0.00;0.00;0.62;0.00;0.00;0.62;1.80;1.10;;;21.30;28.80;;;;;;2268635;61;20914;-69
2023/11/12 05:48:27;0.00;0.00;0.62;0.00;0.00;0.62;2.00;1.10;;;21.20;28.80;;;;;;2268268;61;20417;-68
2023/11/12 05:51:12;0.00;0.00;0.62;0.00;0.00;0.62;1.93;1.47;;;21.20;28.80;;;;;;2268215;61;20781;-70
2023/11/12 05:53:56;0.00;0.00;0.62;0.00;0.00;0.62;1.83;1.30;;;21.20;28.80;;;;;;2268845;61;20355;-70
2023/11/12 05:56:42;0.00;0.00;0.62;0.00;0.00;0.62;1.60;1.10;;;21.20;28.80;;;;;;2268629;61;20362;-70
2023/11/12 05:59:28;0.00;0.00;0.62;0.00;0.00;0.62;1.50;1.00;;;21.20;28.80;;;;;;2267798;61;20883;-69
2023/11/12 06:02:13;0.00;0.00;0.62;0.00;0.00;0.62;1.77;1.10;;;21.20;28.80;;;;;;2268498;61;20391;-70
2023/11/12 06:04:57;0.00;0.00;0.62;0.00;0.00;0.62;1.57;0.97;;;21.20;28.80;;;;;;2268413;61;20899;-68
2023/11/12 06:07:42;0.00;0.00;0.62;0.00;0.00;0.62;1.80;1.30;;;21.20;28.80;;;;;;2272141;61;20362;-68
2023/11/12 06:10:28;0.00;0.00;0.62;0.00;0.00;0.62;2.43;1.13;;;21.20;29.00;;;;;;2273146;61;20468;-69
2023/11/12 06:13:13;0.00;0.00;0.62;0.00;0.00;0.62;1.97;1.30;;;21.20;28.80;;;;;;2272466;61;20447;-67
2023/11/12 06:15:59;0.00;0.00;0.62;0.00;0.00;0.62;2.07;1.20;;;21.20;28.80;;;;;;2273099;60;20451;-69
2023/11/12 06:18:44;0.00;0.00;0.62;0.00;0.00;0.62;1.80;1.20;;;21.20;28.80;;;;;;2272476;61;20943;-69
2023/11/12 06:21:28;0.00;0.00;0.62;0.00;0.00;0.62;1.83;1.30;;;21.20;28.80;;;;;;2272330;61;20416;-69
2023/11/12 06:24:13;0.00;0.00;0.62;0.00;0.00;0.62;1.80;1.20;;;21.20;28.80;;;;;;2272963;61;20378;-68
2023/11/12 06:26:58;0.00;0.00;0.62;0.00;0.00;0.62;1.80;1.03;;;21.20;28.80;;;;;;2272770;61;20398;-69
2023/11/12 06:29:44;0.00;0.00;0.62;0.00;0.00;0.62;1.60;1.00;;;21.20;28.80;;;;;;2272254;61;20813;-69
2023/11/12 06:32:30;0.00;0.00;0.62;0.00;0.00;0.62;2.07;1.43;;;21.20;28.80;;;;;;2272938;61;20878;-68
2023/11/12 06:35:14;0.00;0.00;0.62;0.00;0.00;0.62;1.73;1.20;;;21.20;28.80;;;;;;2272617;61;20955;-69
2023/11/12 06:37:59;0.00;0.00;0.62;0.00;0.00;0.62;1.80;1.20;;;21.20;28.80;;;;;;2272324;61;20419;-69
2023/11/12 06:40:44;0.00;0.00;0.62;0.00;0.00;0.62;1.90;1.43;;;21.20;28.80;;;;;;2269521;61;20442;-68
2023/11/12 06:43:28;0.00;0.00;0.62;0.00;0.00;0.62;1.70;1.10;;;21.20;28.80;;;;;;2272349;61;20394;-69
2023/11/12 06:46:13;0.00;0.00;0.62;0.00;0.00;0.62;1.80;1.40;;;21.20;28.80;;;;;;2272804;61;20358;-68
2023/11/12 06:48:59;0.00;0.00;0.62;0.00;0.00;0.62;1.60;1.10;;;21.20;28.80;;;;;;2272230;61;20577;-68
2023/11/12 06:51:43;0.00;0.00;0.62;0.00;0.00;0.62;1.80;1.20;;;21.20;28.80;;;;;;2272724;61;20832;-70
2023/11/12 06:54:28;0.00;0.00;0.62;0.00;0.00;0.62;1.70;1.20;;;21.20;28.80;;;;;;2272488;61;20397;-69
2023/11/12 06:57:13;0.00;0.00;0.62;0.00;0.00;0.62;1.73;1.20;;;21.20;28.80;;;;;;2272222;61;20362;-69
2023/11/12 06:59:57;0.00;0.00;0.62;0.00;0.00;0.62;1.70;1.10;;;21.20;28.80;;;;;;2271768;61;20362;-67
2023/11/12 07:02:42;0.00;0.00;0.62;0.00;0.00;0.62;1.50;1.03;;;21.20;28.80;;;;;;2272538;61;20429;-69
2023/11/12 07:05:31;0.00;0.00;0.62;0.00;0.00;0.62;1.70;1.20;;;21.20;28.80;;;;;;2272159;61;20933;-68
2023/11/12 07:08:19;0.00;0.00;0.62;0.00;0.00;0.62;1.73;1.10;;;21.20;28.80;;;;;;2501522;53;20388;-69
2023/11/12 07:11:04;0.00;0.00;0.62;0.00;0.00;0.62;1.77;1.00;;;21.20;28.80;;;;;;2264574;61;20444;-68
2023/11/12 07:13:48;0.00;0.00;0.62;0.00;0.00;0.62;1.93;1.30;;;21.20;28.80;;;;;;2263965;61;20359;-69
2023/11/12 07:16:33;0.00;0.00;0.62;0.00;0.00;0.62;1.57;1.00;;;21.20;28.80;;;;;;2264491;61;20359;-68
2023/11/12 07:19:17;0.00;0.00;0.62;0.00;0.00;0.62;1.93;1.30;;;21.20;28.80;;;;;;2263713;61;20398;-69
2023/11/12 07:22:04;0.00;0.00;0.62;0.00;0.00;0.62;1.90;1.30;;;21.20;28.80;;;;;;2264478;61;20372;-68
2023/11/12 07:24:49;0.00;0.00;0.62;0.00;0.00;0.62;1.77;1.23;;;21.20;28.80;;;;;;2264382;61;20404;-70
2023/11/12 07:27:34;0.00;0.00;0.62;0.00;0.00;0.62;1.87;1.30;;;21.20;28.80;;;;;;2264107;61;20940;-69
2023/11/12 07:30:19;0.00;0.00;0.62;0.00;0.00;0.62;1.90;1.27;;;21.20;28.80;;;;;;2264251;61;20364;-68
2023/11/12 07:33:05;0.00;0.00;0.62;0.00;0.00;0.62;1.60;1.13;;;21.20;28.80;;;;;;2261263;61;20355;-68
2023/11/12 07:35:50;0.00;0.00;0.62;0.00;0.00;0.62;1.60;1.30;;;21.20;28.80;;;;;;2264194;61;20468;-69
2023/11/12 07:38:36;0.00;0.00;0.62;0.00;0.00;0.62;1.73;1.27;;;21.20;28.90;;;;;;2264176;61;20410;-68
2023/11/12 07:41:23;0.00;0.00;0.62;0.00;0.00;0.62;1.60;1.10;;;21.20;28.80;;;;;;2263940;61;20425;-68
2023/11/12 07:44:07;0.00;0.00;0.62;0.00;0.00;0.62;1.67;1.00;;;21.20;28.80;;;;;;2264581;61;20391;-68
2023/11/12 07:46:52;0.00;0.00;0.62;0.00;0.00;0.62;1.93;1.30;;;21.20;28.80;;;;;;2264393;61;20865;-69
2023/11/12 07:49:37;0.00;0.00;0.62;0.00;0.00;0.62;2.00;1.40;;;21.20;28.80;;;;;;2266504;61;20894;-69
2023/11/12 07:52:21;0.00;0.00;0.62;0.00;0.00;0.62;1.57;1.00;;;21.20;28.90;;;;;;2268479;61;20359;-69
2023/11/12 07:55:08;0.00;0.00;0.62;0.00;0.00;0.62;1.60;1.10;;;21.20;28.80;;;;;;2268423;61;20387;-70
2023/11/12 07:57:53;0.00;0.00;0.62;0.00;0.00;0.62;1.87;1.40;;;21.20;28.80;;;;;;2267613;61;20424;-69
2023/11/12 08:00:37;0.00;0.00;0.62;0.00;0.00;0.62;2.10;1.40;;;21.20;28.90;;;;;;2268466;61;20363;-69
2023/11/12 08:03:22;0.00;0.00;0.62;0.00;0.00;0.62;1.57;1.00;;;21.20;28.80;;;;;;2268035;61;20383;-70
2023/11/12 08:09:09;0.00;0.00;0.62;0.00;0.00;0.62;1.60;0.83;;;21.20;28.80;;;;;;2274017;61;20382;-69
2023/11/12 08:11:54;0.00;0.00;0.62;0.00;0.00;0.62;1.60;1.10;;;21.20;28.90;;;;;;2272620;61;20599;-69
2023/11/12 08:14:40;0.00;0.00;0.62;0.00;0.00;0.62;1.60;1.10;;;21.20;28.90;;;;;;2273119;61;20433;-69
2023/11/12 08:17:25;0.00;0.00;0.62;0.00;0.00;0.62;1.73;1.20;;;21.20;28.90;;;;;;2273172;61;20932;-69
2023/11/12 08:20:10;0.00;0.00;0.62;0.00;0.00;0.62;1.60;0.90;;;21.20;28.90;;;;;;2272421;61;20366;-68
2023/11/12 08:22:55;0.00;0.00;0.62;0.00;0.00;0.62;1.80;1.10;;;21.20;28.90;;;;;;2273127;61;20919;-70
2023/11/12 08:25:39;0.00;0.00;0.62;0.00;0.00;0.62;1.50;1.00;;;21.20;28.90;;;;;;2272590;61;20381;-69
2023/11/12 08:28:25;0.00;0.00;0.62;0.00;0.00;0.62;2.00;1.17;;;21.20;28.90;;;;;;2272821;61;20366;-69
2023/11/12 08:31:10;0.00;0.00;0.62;0.00;0.00;0.62;1.43;0.93;;;21.20;28.90;;;;;;2273201;61;20415;-69
2023/11/12 08:33:55;0.00;0.00;0.62;0.00;0.00;0.62;1.37;0.90;;;21.20;28.90;;;;;;2272653;61;21051;-69
2023/11/12 08:36:39;0.00;0.00;0.62;0.00;0.00;0.62;1.93;1.20;;;21.20;28.90;;;;;;2273001;61;20366;-69
2023/11/12 08:39:24;0.00;0.00;0.62;0.00;0.00;0.62;1.60;1.10;;;21.20;28.90;;;;;;2272637;61;20364;-70
2023/11/12 08:42:09;0.00;0.00;0.62;0.00;0.00;0.62;1.70;1.03;;;21.20;28.90;;;;;;2272486;61;20381;-69
2023/11/12 08:44:56;0.00;0.00;0.62;0.00;0.00;0.62;1.47;1.03;;;21.20;28.90;;;;;;2272260;61;20843;-70
2023/11/12 08:47:41;0.00;0.00;0.62;0.00;0.00;0.62;2.07;1.23;;;21.20;29.40;;;;;;2273063;61;20480;-70
2023/11/12 08:50:26;0.00;0.00;0.62;0.00;0.00;0.62;1.57;0.93;;;21.20;28.90;;;;;;2272569;61;20358;-70
2023/11/12 08:53:10;0.00;0.00;0.62;0.00;0.00;0.62;1.50;1.00;;;21.20;28.90;;;;;;2273152;61;20770;-69
2023/11/12 08:55:54;0.00;0.00;0.62;0.00;0.00;0.62;1.90;1.20;;;21.20;28.90;;;;;;2272537;61;20382;-69
2023/11/12 08:58:39;0.00;0.00;0.62;0.00;0.00;0.62;2.07;1.00;;;21.20;28.90;;;;;;2272601;61;20442;-69
2023/11/12 09:01:25;0.00;0.00;0.62;0.00;0.00;0.62;1.50;1.00;;;21.20;28.90;;;;;;2272974;61;20378;-69
2023/11/12 09:04:10;0.00;0.00;0.62;0.00;0.00;0.62;1.57;0.90;;;21.20;28.90;;;;;;2272600;61;20394;-70
2023/11/12 09:06:54;0.00;0.00;0.62;0.00;0.00;0.62;1.60;1.13;;;21.20;28.90;;;;;;2270901;61;20405;-69
2023/11/12 09:09:39;0.00;0.00;0.62;0.00;0.00;0.62;1.70;1.23;;;21.20;28.90;;;;;;2268536;61;20413;-70
2023/11/12 09:12:23;0.00;0.00;0.62;0.00;0.00;0.62;1.83;1.07;;;21.20;28.90;;;;;;2268720;61;20355;-69
2023/11/12 09:15:11;0.00;0.00;0.62;0.00;0.00;0.62;1.67;1.10;;;21.20;28.90;;;;;;2268742;61;20950;-70
2023/11/12 09:17:57;0.00;0.00;0.62;0.00;0.00;0.62;1.80;1.17;;;21.20;28.90;;;;;;2267923;61;20359;-69
2023/11/12 09:20:43;0.00;0.00;0.62;0.00;0.00;0.62;1.50;1.10;;;21.20;28.90;;;;;;2268187;61;20363;-70
2023/11/12 09:23:28;0.00;0.00;0.62;0.00;0.00;0.62;1.60;1.00;;;21.20;28.90;;;;;;2268795;61;20390;-69
2023/11/12 09:26:20;0.00;0.00;0.62;0.00;0.00;0.62;1.77;1.13;;;21.20;28.90;;;;;;2268309;61;20367;-68
2023/11/12 09:29:05;0.00;0.00;0.62;0.00;0.00;0.62;1.50;0.80;;;21.20;28.90;;;;;;2268142;61;20363;-69
2023/11/12 09:31:49;0.00;0.00;0.62;0.00;0.00;0.62;2.00;1.30;;;21.20;29.40;;;;;;2268633;61;20363;-69
2023/11/12 09:34:35;0.00;0.00;0.62;0.00;0.00;0.62;1.50;0.90;;;21.20;28.90;;;;;;2268714;61;20410;-69
2023/11/12 09:37:19;0.00;0.00;0.62;0.00;0.00;0.62;1.70;1.10;;;21.20;28.90;;;;;;2268544;61;20764;-70
2023/11/12 09:40:08;0.00;0.00;0.62;0.00;0.00;0.62;1.67;1.17;;;21.20;28.90;;;;;;2267948;61;20795;-69
2023/11/12 09:42:53;0.00;0.00;0.62;0.00;0.00;0.62;1.90;1.00;;;21.20;28.90;;;;;;2268687;61;20501;-70
2023/11/12 09:45:43;0.00;0.00;0.62;0.00;0.00;0.62;1.50;0.90;;;21.20;28.90;;;;;;2268602;61;20399;-69
2023/11/12 09:48:34;0.00;0.00;0.62;0.00;0.00;0.62;1.60;1.10;;;21.20;28.90;;;;;;2268021;61;20355;-70
2023/11/12 09:51:21;0.00;0.00;0.62;0.00;0.00;0.62;1.60;1.10;;;21.20;28.90;;;;;;2268360;61;20367;-69
2023/11/12 09:54:08;0.00;0.00;0.62;0.00;0.00;0.62;1.83;1.20;;;21.20;28.90;;;;;;2268771;61;20391;-70
2023/11/12 09:56:53;0.00;0.00;0.62;0.00;0.00;0.62;1.87;1.13;;;21.20;28.90;;;;;;2268998;61;20424;-69
2023/11/12 09:59:37;0.00;0.00;0.62;0.00;0.00;0.62;1.57;1.00;;;21.20;28.90;;;;;;2268502;61;20417;-69
2023/11/12 10:02:24;0.00;0.00;0.62;0.00;0.00;0.62;1.70;1.20;;;21.20;28.90;;;;;;2268167;61;20440;-70
2023/11/12 10:05:13;0.00;0.00;0.62;0.00;0.00;0.62;2.10;1.50;;;21.20;28.90;;;;;;2268611;61;20409;-69
2023/11/12 10:07:59;0.00;0.00;0.62;0.00;0.00;0.62;2.17;1.43;;;21.20;28.90;;;;;;2268202;61;20486;-70
2023/11/12 10:10:44;0.00;0.00;0.62;0.00;0.00;0.62;2.20;1.50;;;21.20;28.90;;;;;;2267688;61;20383;-69
2023/11/12 10:13:36;0.00;0.00;0.62;0.00;0.00;0.62;1.97;1.30;;;21.20;28.90;;;;;;2268506;61;20363;-70
2023/11/12 10:16:23;0.00;0.00;0.62;0.00;0.00;0.62;2.60;1.60;;;21.20;28.90;;;;;;2268653;61;20426;-69
2023/11/12 10:19:11;0.00;0.00;0.62;0.00;0.00;0.62;2.23;1.50;;;21.20;28.90;;;;;;2268348;61;20359;-68
2023/11/12 10:21:58;0.00;0.00;0.62;0.00;0.00;0.62;2.40;2.07;;;21.20;28.90;;;;;;2257495;61;20451;-67
2023/11/12 10:24:45;0.00;0.00;0.62;0.00;0.00;0.62;4.00;1.80;;;21.20;28.90;;;;;;2267832;61;20437;-67
2023/11/12 10:27:30;0.00;0.00;0.62;0.00;0.00;0.62;3.37;1.70;;;21.20;28.90;;;;;;2268278;61;20370;-68
2023/11/12 10:30:20;0.00;0.00;0.62;0.00;0.00;0.62;2.50;1.93;;;21.20;28.90;;;;;;2268483;61;20409;-67
2023/11/12 10:33:15;0.00;0.00;0.62;0.00;0.00;0.62;2.60;2.03;;;21.20;28.90;;;;;;2268355;61;20377;-70
2023/11/12 10:36:08;0.00;0.00;0.62;0.00;0.00;0.62;2.90;2.40;;;21.20;29.00;;;;;;2268957;61;20434;-67
2023/11/12 10:38:52;0.00;0.00;0.62;0.00;0.00;0.62;2.97;2.67;;;21.20;29.00;;;;;;2267475;61;20967;-70
2023/11/12 10:41:39;0.00;0.00;0.62;0.00;0.00;0.62;3.90;2.93;;;21.20;28.90;;;;;;2268745;61;20363;-68
2023/11/12 10:44:25;0.00;0.00;0.62;0.00;0.00;0.62;3.50;2.73;;;21.20;28.90;;;;;;2268615;61;20395;-70
2023/11/12 10:47:11;0.00;0.00;0.62;0.00;0.00;0.62;3.57;2.80;;;21.20;28.90;;;;;;2268219;61;20363;-70
2023/11/12 10:49:56;0.00;0.00;0.62;0.00;0.00;0.62;3.40;3.00;;;21.20;28.90;;;;;;2267925;61;20363;-67
2023/11/12 10:52:42;0.00;0.00;0.62;0.00;0.00;0.62;4.00;3.20;;;21.20;28.90;;;;;;2268564;61;20447;-70
2023/11/12 10:55:27;0.00;0.00;0.62;0.00;0.00;0.62;3.70;2.97;;;21.20;28.90;;;;;;2268457;61;20833;-68